Lloyd, Kentucky
Current Conditions -  °F | °C
As of 8:35 AM on Friday 28 Nov 2014 (Local Time) from KDWU Reporting Station
Overcast Overcast  
Wind Chill: 23°   Ceiling: 3900
Heat Index: 30°   Visibility: 10mi
Dew Point: 18°   Wind: 7mph
Humidity: 60%   Direction: 330°NNW
Pressure: 30.41"   Gusts: NA
Location:  38.62°N, 82.86°W
Report Text: KDWU 281335Z AUTO 33006KT 10SM OVC039 M01/M08 A3041 RMK AO1
Loading
Personal Weather Stations






























Interactive Weather Map New forecast layout! Learn more

10-Day Weather Forecast

Advertisements
Track Severe Weather on mobile